Latest Weather Observations for Normanton

IDQ60801

Issued at 4:32 pm EST Monday 27 March 2017 (issued every 30 minutes, with the page automatically refreshed every 10 minutes)

About weather observations | Map of weather stations | Latest weather observations for QLD | Other Formats
Station Details ID: 029063 Name: NORMANTON AIRPORT Lat: -17.69 Lon: 141.07 Height: 18.42 m
Data from the previous 72 hours. | See also: Recent months at Normanton
Date/Time
EST
Temp
°C
App
Temp
°C
Dew
Point
°C
Rel
Hum
%
Delta-T
°C
Wind Press
QNH
hPa
Press
MSL
hPa
Rain since
9am
mm
Dir  Spd
km/h
Gust
km/h
Spd
kts
Gust
kts
27/04:30pm 36.1 38.3 24.0 49 8.5 NW 19 22 10 12 1004.2 - 0.0
27/04:00pm 37.3 40.4 21.0 38 11.1 W 6 13 3 7 1004.2 - 0.0
27/03:30pm 36.8 38.3 19.7 36 11.4 NW 11 17 6 9 1004.4 - 0.0
27/03:00pm 36.4 38.9 19.8 37 11.1 WSW 6 9 3 5 1004.8 1004.6 0.0
27/02:30pm 36.7 39.7 20.9 39 10.7 S 6 11 3 6 1004.9 - 0.0
27/02:00pm 36.1 39.1 20.8 41 10.3 SW 6 13 3 7 1005.4 - 0.0
27/01:30pm 35.6 37.9 20.7 41 10.0 W 9 15 5 8 1006.1 - 0.0
27/01:00pm 35.3 38.6 21.9 45 9.2 SSW 7 13 4 7 1006.7 - 0.0
27/12:30pm 35.2 40.0 23.5 50 8.2 WSW 4 24 2 13 1007.2 - 0.0
27/12:00pm 34.4 37.6 23.1 51 7.8 S 11 17 6 9 1007.9 1007.8 0.0
27/11:30am 34.0 38.9 24.6 58 6.6 SW 7 17 4 9 1008.7 - 0.0
27/11:00am 33.2 36.5 23.2 55 6.9 SW 11 19 6 10 1009.4 - 0.0
27/10:30am 32.9 37.4 25.2 64 5.5 WSW 11 17 6 9 1009.8 - 0.0
27/10:00am 31.9 35.4 24.2 63 5.4 W 13 19 7 10 1009.9 - 0.0
27/09:30am 31.0 33.9 24.4 68 4.6 WSW 17 20 9 11 1009.7 - 0.0
27/09:00am 30.1 33.7 25.6 77 3.2 WSW 17 26 9 14 1009.6 1009.4 0.0
27/08:30am 29.1 32.8 25.7 82 2.4 WSW 17 22 9 12 1009.5 - 0.0
27/08:00am 28.3 32.1 25.9 87 1.7 WSW 17 24 9 13 1009.1 - 0.0
27/07:30am 27.5 32.3 26.3 93 0.9 WSW 13 22 7 12 1008.8 - 0.0
27/07:00am 26.9 31.9 26.0 95 0.6 WSW 11 13 6 7 1008.7 - 0.0
27/06:30am 26.9 32.0 26.2 96 0.5 WSW 11 13 6 7 1008.3 - 0.0
27/06:00am 27.0 32.5 26.1 95 0.6 WSW 9 13 5 7 1008.0 1007.8 0.0
27/05:30am 27.2 32.8 26.3 95 0.6 W 9 13 5 7 1007.9 - 0.0
27/05:00am 27.4 33.0 26.3 94 0.8 W 9 11 5 6 1008.0 - 0.0
27/04:30am 27.4 33.5 26.5 95 0.6 WNW 7 9 4 5 1007.9 - 0.0
27/04:00am 27.6 33.7 26.5 94 0.8 NW 7 9 4 5 1007.8 - 0.0
27/03:30am 27.7 33.9 26.6 94 0.8 WNW 7 9 4 5 1008.0 - 0.0
27/03:00am 27.6 33.7 26.5 94 0.8 W 7 11 4 6 1008.1 1007.9 0.0
27/02:30am 27.7 33.9 26.6 94 0.8 WNW 7 9 4 5 1008.3 - 0.0
27/02:00am 27.6 35.2 26.7 95 0.6 CALM 0 0 0 0 1008.4 - 0.0
27/01:30am 27.3 34.5 26.1 93 0.9 CALM 0 0 0 0 1008.6 - 0.0
27/01:00am 27.4 34.5 26.0 92 1.0 CALM 0 0 0 0 1008.9 - 0.0
27/12:30am 27.8 35.2 26.4 92 1.0 CALM 0 4 0 2 1009.3 - 0.0
27/12:00am 28.2 35.4 26.2 89 1.4 CALM 0 6 0 3 1009.3 1009.2 0.0
 
Date/Time
EST
Temp
°C
App
Temp
°C
Dew
Point
°C
Rel
Hum
%
Delta-T
°C
Wind Press
QNH
hPa
Press
MSL
hPa
Rain since
9am
mm
Dir  Spd
km/h
Gust
km/h
Spd
kts
Gust
kts
26/11:30pm 28.3 35.5 26.1 88 1.6 CALM 0 6 0 3 1009.4 - 0.0
26/11:00pm 28.3 34.3 26.1 88 1.6 NNW 6 7 3 4 1009.2 - 0.0
26/10:30pm 28.7 34.5 26.1 86 1.8 NW 7 9 4 5 1009.0 - 0.0
26/10:00pm 28.5 34.2 25.9 86 1.8 NNW 7 9 4 5 1008.6 - 0.0
26/09:30pm 28.5 33.6 25.5 84 2.1 NNW 9 11 5 6 1008.5 - 0.0
26/09:00pm 28.4 33.1 25.0 82 2.4 NW 9 11 5 6 1008.2 1007.9 0.0
26/08:30pm 28.5 32.2 24.5 79 2.8 NW 13 15 7 8 1007.7 - 0.0
26/08:00pm 28.8 33.4 24.8 79 2.8 WNW 9 13 5 7 1007.5 - 0.0
26/07:30pm 29.0 33.1 24.6 77 3.1 NW 11 13 6 7 1007.1 - 0.0
26/07:00pm 29.4 33.3 24.3 74 3.5 NW 11 13 6 7 1006.8 - 0.0
26/06:30pm 29.7 33.4 23.9 71 4.0 NW 11 15 6 8 1006.4 - 0.0
26/06:00pm 30.5 34.1 24.4 70 4.3 NW 13 19 7 10 1006.0 1005.8 0.0
26/05:30pm 31.5 35.8 24.9 68 4.6 NW 11 17 6 9 1005.6 - 0.0
26/05:00pm 31.1 35.5 23.5 64 5.3 W 6 9 3 5 1005.6 - 0.0
26/04:30pm 32.6 36.8 22.4 55 7.0 SW 4 19 2 10 1005.2 - 0.0
26/04:00pm 34.7 39.6 22.4 48 8.5 CALM 0 6 0 3 1005.4 - 0.0
26/03:30pm 35.7 39.8 22.3 46 9.2 WSW 4 9 2 5 1005.5 - 0.0
26/03:00pm 35.0 39.9 23.0 49 8.3 ESE 2 6 1 3 1006.0 1005.8 0.0
26/02:30pm 34.9 38.8 23.6 52 7.9 SW 9 11 5 6 1006.4 - 0.0
26/02:00pm 34.3 38.2 23.0 51 7.8 S 7 13 4 7 1007.0 - 0.0
26/01:30pm 34.4 38.2 23.4 52 7.7 SSW 9 15 5 8 1007.5 - 0.0
26/01:00pm 33.6 38.8 24.8 60 6.2 SSW 6 11 3 6 1008.0 - 0.0
26/12:30pm 33.0 38.7 25.0 63 5.7 W 4 9 2 5 1008.7 - 0.0
26/12:00pm 32.0 37.4 25.1 67 4.9 WNW 6 9 3 5 1009.5 1009.3 0.0
26/11:30am 31.9 39.0 26.0 71 4.2 CALM 0 4 0 2 1009.9 - 0.0
26/11:00am 31.7 38.0 25.3 69 4.5 SW 2 9 1 5 1010.3 - 0.0
26/10:30am 31.4 37.9 26.2 74 3.7 SE 4 11 2 6 1010.5 - 0.0
26/10:27am 31.5 38.2 26.5 75 3.6 S 4 9 2 5 1010.5 - 0.0
26/10:00am 30.6 36.1 26.1 77 3.2 SE 9 13 5 7 1010.9 - 0.0
26/09:30am 29.5 35.0 26.1 82 2.4 E 9 15 5 8 1011.3 - 0.0
26/09:00am 29.2 34.3 26.2 84 2.1 SE 11 15 6 8 1011.1 1010.9 0.0
26/08:30am 28.9 35.0 26.5 87 1.7 E 7 11 4 6 1010.8 - 0.0
26/08:10am 28.4 34.9 26.2 88 1.6 ESE 4 9 2 5 1010.4 - 0.0
26/08:00am 28.4 34.7 26.0 87 1.7 ESE 4 7 2 4 1010.2 - 0.0
26/07:45am 28.0 34.4 26.6 92 1.0 SE 6 9 3 5 1010.0 - 0.0
26/07:30am 27.3 33.1 26.6 96 0.5 S 9 11 5 6 1009.7 - 0.0
26/07:00am 26.8 32.5 26.5 98 0.2 SSE 9 13 5 7 1009.3 - 0.0
26/06:57am 26.7 32.0 26.4 98 0.2 SSE 11 13 6 7 1009.3 - 0.0
26/06:30am 26.6 31.7 26.1 97 0.4 S 11 13 6 7 1008.9 - 0.0
26/06:00am 26.8 32.5 25.9 95 0.6 SSW 7 11 4 6 1008.5 1008.2 0.0
26/05:30am 27.2 34.4 26.1 94 0.8 CALM 0 4 0 2 1007.8 - 0.0
26/05:00am 27.2 33.2 26.1 94 0.8 W 6 7 3 4 1007.6 - 0.0
26/04:30am 27.5 33.7 26.3 93 0.9 WNW 6 7 3 4 1007.6 - 0.0
26/04:00am 27.4 33.3 26.2 93 0.9 NW 7 9 4 5 1007.4 - 0.0
26/03:30am 27.7 33.7 26.3 92 1.0 NW 7 9 4 5 1007.5 - 0.0
26/03:00am 27.6 33.5 26.2 92 1.0 NW 7 9 4 5 1007.7 1007.5 0.0
26/02:30am 27.7 33.8 26.5 93 0.9 NW 7 7 4 4 1007.7 - 0.0
26/02:00am 27.7 33.7 26.3 92 1.0 W 7 9 4 5 1007.7 - 0.0
26/01:30am 27.8 34.0 26.6 93 0.9 W 7 9 4 5 1008.1 - 0.0
26/01:00am 28.2 34.5 26.8 92 1.0 NW 7 9 4 5 1008.6 - 0.0
26/12:30am 28.3 34.9 26.9 92 1.0 NW 6 7 3 4 1009.0 - 0.0
26/12:00am 28.4 34.6 26.6 90 1.3 WNW 7 9 4 5 1009.1 1009.0 0.0
 
Date/Time
EST
Temp
°C
App
Temp
°C
Dew
Point
°C
Rel
Hum
%
Delta-T
°C
Wind Press
QNH
hPa
Press
MSL
hPa
Rain since
9am
mm
Dir  Spd
km/h
Gust
km/h
Spd
kts
Gust
kts
25/11:30pm 28.6 34.9 26.8 90 1.3 WNW 7 9 4 5 1009.3 - 0.0
25/11:00pm 28.8 35.0 26.6 88 1.6 NW 7 9 4 5 1009.2 - 0.0
25/10:30pm 29.0 34.9 26.8 88 1.6 NW 9 11 5 6 1009.3 - 0.0
25/10:00pm 29.1 35.5 26.9 88 1.6 NNW 7 9 4 5 1009.0 - 0.0
25/09:30pm 29.3 35.5 26.7 86 1.9 NNW 7 7 4 4 1008.6 - 0.0
25/09:00pm 29.4 35.4 26.4 84 2.1 NNW 7 9 4 5 1008.3 1008.0 0.0
25/08:30pm 29.6 35.3 26.4 83 2.3 NW 9 11 5 6 1007.8 - 0.0
25/08:00pm 29.6 34.7 26.2 82 2.4 NW 11 13 6 7 1007.4 - 0.0
25/07:30pm 29.7 34.9 26.3 82 2.4 NW 11 13 6 7 1007.4 - 0.0
25/07:00pm 30.7 34.1 25.8 75 3.5 NNW 19 24 10 13 1007.1 - 0.0
25/06:30pm 31.6 35.9 25.5 70 4.3 NW 13 20 7 11 1006.6 - 0.0
25/06:00pm 33.3 38.6 23.0 54 7.1 CALM 0 0 0 0 1005.9 1005.6 0.0
25/05:30pm 34.1 38.9 22.8 51 7.8 E 2 15 1 8 1005.8 - 0.0
25/05:00pm 33.8 38.4 23.2 54 7.3 SSE 4 11 2 6 1005.6 - 0.0
25/04:30pm 34.1 38.3 22.5 50 8.0 SSW 4 13 2 7 1005.6 - 0.0
25/04:00pm 34.7 38.9 23.4 52 7.9 SSE 7 17 4 9 1005.7 - 0.0
25/03:30pm 34.4 38.4 22.8 51 8.0 SSE 6 13 3 7 1005.8 - 0.0
25/03:00pm 34.5 38.9 23.5 52 7.7 SW 6 13 3 7 1006.0 1005.9 0.0
25/02:30pm 33.9 39.1 23.6 55 7.2 E 2 7 1 4 1006.7 - 0.0
25/02:00pm 33.7 39.4 23.7 56 7.0 CALM 0 6 0 3 1007.2 - 0.0
25/01:30pm 33.4 38.3 23.7 56 6.8 ENE 4 11 2 6 1007.7 - 0.0
25/01:00pm 32.3 36.3 22.7 57 6.6 E 6 11 3 6 1008.1 - 0.0
25/12:30pm 32.6 35.8 23.0 57 6.6 ENE 11 15 6 8 1008.6 - 0.0
25/12:00pm 32.5 37.2 24.3 62 5.8 NE 7 15 4 8 1009.2 1009.1 0.0
25/11:30am 31.6 36.1 23.9 63 5.4 ESE 7 13 4 7 1009.6 - 0.0
25/11:00am 30.9 35.3 23.8 66 4.9 ENE 7 15 4 8 1010.0 - 0.0
25/10:30am 29.4 34.0 23.8 72 3.9 ESE 6 13 3 7 1010.1 - 0.0
25/10:00am 28.9 32.6 23.3 72 3.8 E 9 15 5 8 1010.2 - 0.0
25/09:30am 29.5 33.7 24.1 72 3.7 E 9 15 5 8 1010.3 - 0.0
25/09:00am 28.9 33.0 24.0 75 3.4 NE 9 15 5 8 1010.0 1009.8 12.6
25/08:30am 27.9 32.2 24.3 81 2.5 E 9 13 5 7 1009.7 - 12.6
25/08:00am 26.5 30.4 23.6 84 2.0 ENE 9 15 5 8 1009.4 - 12.6
25/07:30am 25.2 29.4 23.4 90 1.2 ENE 7 11 4 6 1009.0 - 12.6
25/06:30am 24.6 28.8 23.4 93 0.8 ESE 7 9 4 5 1008.4 - 12.6
25/06:00am 24.9 29.0 23.3 91 1.1 SE 7 9 4 5 1008.2 1008.0 12.6
25/05:30am 24.9 29.0 23.3 91 1.1 E 7 11 4 6 1007.9 - 12.6
25/05:00am 25.0 28.8 23.4 91 1.1 E 9 15 5 8 1007.5 - 12.6
25/04:30am 25.1 31.0 24.1 94 0.7 CALM 0 0 0 0 1007.5 - 12.6
25/04:00am 25.2 30.8 23.6 91 1.1 CALM 0 0 0 0 1007.3 - 12.6
25/03:30am 25.4 31.0 23.6 90 1.2 CALM 0 0 0 0 1007.2 - 12.6
25/03:00am 25.6 31.3 23.8 90 1.2 CALM 0 0 0 0 1007.2 1007.0 12.6
25/02:30am 25.9 30.6 23.9 89 1.4 NNE 6 9 3 5 1007.4 - 12.6
25/02:00am 25.9 29.6 23.9 89 1.4 ENE 11 15 6 8 1007.4 - 12.6
25/01:30am 26.0 30.4 24.4 91 1.1 NE 9 15 5 8 1007.5 - 12.6
25/01:00am 25.9 29.8 24.3 91 1.1 ENE 11 19 6 10 1008.1 - 12.6
25/12:30am 25.7 29.5 24.1 91 1.1 E 11 19 6 10 1008.5 - 12.6
25/12:00am 25.9 30.4 23.9 89 1.4 NE 7 13 4 7 1008.2 1008.1 12.6
 
Date/Time
EST
Temp
°C
App
Temp
°C
Dew
Point
°C
Rel
Hum
%
Delta-T
°C
Wind Press
QNH
hPa
Press
MSL
hPa
Rain since
9am
mm
Dir  Spd
km/h
Gust
km/h
Spd
kts
Gust
kts
24/11:30pm 26.1 30.6 24.0 88 1.4 N 7 11 4 6 1008.5 - 12.6
24/11:00pm 26.1 30.7 24.1 89 1.4 NNE 7 11 4 6 1008.6 - 12.6
24/10:30pm 25.9 29.9 23.8 88 1.4 N 9 11 5 6 1008.3 - 12.6
24/10:00pm 25.8 29.4 23.7 88 1.4 N 11 13 6 7 1007.9 - 12.6
24/09:30pm 25.9 30.5 23.8 88 1.4 N 6 9 3 5 1007.7 - 12.6
24/09:00pm 25.2 30.0 22.9 87 1.6 ENE 2 9 1 5 1007.9 1007.8 12.6
24/08:30pm 24.7 29.9 22.9 90 1.2 CALM 0 11 0 6 1007.8 - 12.6
24/08:00pm 24.2 25.6 22.6 91 1.1 ESE 19 33 10 18 1008.4 - 12.6
24/07:30pm 24.4 26.7 22.7 90 1.1 WNW 15 20 8 11 1007.4 - 12.6
24/07:02pm 23.9 25.3 21.8 88 1.4 WNW 17 20 9 11 1007.0 - 12.6
24/07:00pm 24.0 25.4 21.9 88 1.4 WNW 17 19 9 10 1006.9 - 12.6
24/06:30pm 22.8 26.2 22.0 95 0.5 SW 7 35 4 19 1008.4 - 7.8
24/06:08pm 23.4 21.0 20.0 81 2.2 SSE 32 50 17 27 1008.3 - 1.4
24/06:02pm 27.6 25.6 20.7 66 4.6 S 32 50 17 27 1007.2 - 0.0
24/06:00pm 27.9 30.1 22.6 73 3.6 NW 15 24 8 13 1006.5 1005.6 0.0
24/05:30pm 30.0 30.4 21.7 61 5.6 N 22 35 12 19 1005.4 - 0.0
24/05:00pm 34.0 36.9 25.1 59 6.3 NW 19 24 10 13 1005.0 - 0.0

Other Formats:

Comma delimited format used in spreadsheet applications
http://www.bom.gov.au/fwo/IDQ60801/IDQ60801.94266.axf

JavaScript Object Notation format (JSON) in row-major order
http://www.bom.gov.au/fwo/IDQ60801/IDQ60801.94266.json